Time,TemperatureF,DewpointF,PressureIn,WindDirection,WindDirectionDegrees,WindSpeedMPH,WindSpeedGustMPH,Humidity,HourlyPrecipIn,Conditions,Clouds,dailyrainin,SoftwareType,DateUTC
2013-04-29 00:00:00,70.3,64.4,29.72,West,270,0.0,0.0,77,0.00,,,0.00,fowsr,2013-04-29 04:00:00,
2013-04-29 00:05:00,70.3,64.4,29.72,West,270,0.0,0.0,77,0.00,,,0.00,fowsr,2013-04-29 04:05:00,
2013-04-29 00:10:00,70.3,64.4,29.72,West,270,0.0,0.0,77,0.00,,,0.00,fowsr,2013-04-29 04:10:00,
2013-04-29 00:15:00,70.3,64.7,29.72,West,270,0.0,0.0,78,0.00,,,0.00,fowsr,2013-04-29 04:15:00,
2013-04-29 00:20:00,70.3,64.7,29.72,West,270,0.0,0.0,78,0.00,,,0.00,fowsr,2013-04-29 04:20:00,
2013-04-29 00:25:00,70.2,64.5,29.72,West,270,0.0,0.0,78,0.00,,,0.00,fowsr,2013-04-29 04:25:00,
2013-04-29 00:30:00,70.2,64.8,29.72,West,270,0.0,0.0,79,0.00,,,0.00,fowsr,2013-04-29 04:30:00,
2013-04-29 00:35:00,70.2,64.8,29.72,West,270,0.0,0.0,79,0.00,,,0.00,fowsr,2013-04-29 04:35:00,
2013-04-29 00:40:00,70.2,64.8,29.73,West,270,0.0,0.0,79,0.00,,,0.00,fowsr,2013-04-29 04:40:00,
2013-04-29 00:45:00,70.2,64.8,29.73,West,270,0.0,0.0,79,0.00,,,0.00,fowsr,2013-04-29 04:45:00,
2013-04-29 00:50:00,70.2,64.8,29.73,West,270,0.0,0.0,79,0.00,,,0.00,fowsr,2013-04-29 04:50:00,
2013-04-29 00:55:00,70.2,64.8,29.73,West,270,0.0,0.0,79,0.00,,,0.00,fowsr,2013-04-29 04:55:00,
2013-04-29 01:00:00,70.2,65.1,29.73,West,270,0.0,0.0,80,0.00,,,0.00,fowsr,2013-04-29 05:00:00,
2013-04-29 01:05:00,70.2,65.1,29.73,West,270,0.0,0.0,80,0.00,,,0.00,fowsr,2013-04-29 05:05:00,
2013-04-29 01:10:00,70.2,65.1,29.73,West,270,0.0,0.0,80,0.00,,,0.00,fowsr,2013-04-29 05:10:00,
2013-04-29 01:15:00,70.2,65.1,29.73,West,270,0.0,0.0,80,0.00,,,0.00,fowsr,2013-04-29 05:15:00,
2013-04-29 01:20:00,70.2,65.1,29.72,West,270,0.0,0.0,80,0.00,,,0.00,fowsr,2013-04-29 05:20:00,
2013-04-29 01:25:00,70.2,65.1,29.72,West,270,0.0,0.0,80,0.00,,,0.00,fowsr,2013-04-29 05:25:00,
2013-04-29 01:30:00,70.2,65.4,29.72,SW,225,0.0,0.0,81,0.00,,,0.00,fowsr,2013-04-29 05:30:00,
2013-04-29 01:40:00,70.2,65.4,29.72,SW,225,0.0,0.0,81,0.00,,,0.00,fowsr,2013-04-29 05:40:00,
2013-04-29 01:45:00,70.2,65.4,29.71,SW,225,0.0,0.0,81,0.00,,,0.00,fowsr,2013-04-29 05:45:00,
2013-04-29 01:50:00,70.3,65.5,29.71,SW,225,0.0,0.0,81,0.00,,,0.00,fowsr,2013-04-29 05:50:00,
2013-04-29 01:55:00,70.3,65.5,29.71,SW,225,0.0,0.0,81,0.00,,,0.00,fowsr,2013-04-29 05:55:00,
2013-04-29 02:00:00,70.5,65.7,29.71,SW,225,0.0,0.0,81,0.00,,,0.00,fowsr,2013-04-29 06:00:00,
2013-04-29 02:05:00,70.5,65.7,29.71,SW,225,0.0,0.0,81,0.00,,,0.00,fowsr,2013-04-29 06:05:00,
2013-04-29 02:10:00,70.5,65.7,29.71,SW,225,0.0,0.0,81,0.00,,,0.00,fowsr,2013-04-29 06:10:00,
2013-04-29 02:15:00,70.5,65.7,29.70,SW,225,0.0,0.0,81,0.00,,,0.00,fowsr,2013-04-29 06:15:00,
2013-04-29 02:20:00,70.3,65.5,29.70,SW,225,0.0,0.0,81,0.00,,,0.00,fowsr,2013-04-29 06:20:00,
2013-04-29 02:25:00,70.3,65.5,29.70,SW,225,0.0,0.0,81,0.00,,,0.00,fowsr,2013-04-29 06:25:00,
2013-04-29 02:30:00,70.3,65.5,29.70,SW,225,0.0,0.0,81,0.00,,,0.00,fowsr,2013-04-29 06:30:00,
2013-04-29 02:35:00,70.3,65.8,29.70,SW,225,0.0,0.0,82,0.00,,,0.00,fowsr,2013-04-29 06:35:00,
2013-04-29 02:40:00,70.2,65.6,29.70,SW,225,0.0,0.0,82,0.00,,,0.00,fowsr,2013-04-29 06:40:00,
2013-04-29 02:45:00,70.2,65.6,29.70,SW,225,0.0,0.0,82,0.00,,,0.00,fowsr,2013-04-29 06:45:00,
2013-04-29 02:50:00,70.2,65.6,29.69,SW,225,0.0,0.0,82,0.00,,,0.00,fowsr,2013-04-29 06:50:00,
2013-04-29 02:55:00,70.2,65.6,29.69,SW,225,0.0,0.0,82,0.00,,,0.00,fowsr,2013-04-29 06:55:00,
2013-04-29 03:00:00,70.2,65.6,29.69,SW,225,0.0,0.0,82,0.00,,,0.00,fowsr,2013-04-29 07:00:00,
2013-04-29 03:05:00,70.2,65.6,29.69,SW,225,0.0,0.0,82,0.00,,,0.00,fowsr,2013-04-29 07:05:00,
2013-04-29 03:10:00,70.0,65.5,29.69,SW,225,0.0,0.0,82,0.00,,,0.00,fowsr,2013-04-29 07:10:00,
2013-04-29 03:15:00,70.0,65.5,29.69,SW,225,0.0,0.0,82,0.00,,,0.00,fowsr,2013-04-29 07:15:00,
2013-04-29 03:20:00,70.0,65.5,29.68,SW,225,0.0,0.0,82,0.00,,,0.00,fowsr,2013-04-29 07:20:00,
2013-04-29 03:25:00,69.8,65.3,29.68,SW,225,0.0,0.0,82,0.00,,,0.00,fowsr,2013-04-29 07:25:00,
2013-04-29 03:30:00,69.8,65.3,29.68,SW,225,0.0,0.0,82,0.00,,,0.00,fowsr,2013-04-29 07:30:00,
2013-04-29 03:35:00,69.8,65.6,29.68,SW,225,0.0,0.0,83,0.00,,,0.00,fowsr,2013-04-29 07:35:00,
2013-04-29 03:40:00,69.6,65.7,29.68,SW,225,0.0,0.0,84,0.00,,,0.00,fowsr,2013-04-29 07:40:00,
2013-04-29 03:45:00,69.6,65.7,29.68,SW,225,0.0,0.0,84,0.00,,,0.00,fowsr,2013-04-29 07:45:00,
2013-04-29 03:50:00,69.6,65.7,29.68,SW,225,0.0,0.0,84,0.00,,,0.00,fowsr,2013-04-29 07:50:00,
2013-04-29 03:55:00,69.6,65.7,29.68,SW,225,0.0,0.0,84,0.00,,,0.00,fowsr,2013-04-29 07:55:00,
2013-04-29 04:00:00,69.6,65.7,29.69,SW,225,0.0,0.0,84,0.00,,,0.00,fowsr,2013-04-29 08:00:00,
2013-04-29 04:05:00,69.6,65.7,29.68,SW,225,0.0,0.0,84,0.00,,,0.00,fowsr,2013-04-29 08:05:00,
2013-04-29 04:10:00,69.6,65.7,29.68,SW,225,0.0,0.0,84,0.00,,,0.00,fowsr,2013-04-29 08:10:00,
2013-04-29 04:15:00,69.6,65.7,29.68,SW,225,0.0,0.0,84,0.00,,,0.00,fowsr,2013-04-29 08:15:00,
2013-04-29 04:20:00,69.4,65.5,29.68,SW,225,0.0,0.0,84,0.00,,,0.00,fowsr,2013-04-29 08:20:00,
2013-04-29 04:25:00,69.4,65.5,29.68,SW,225,0.0,0.0,84,0.00,,,0.00,fowsr,2013-04-29 08:25:00,
2013-04-29 04:30:00,69.4,65.5,29.67,SW,225,0.0,0.0,84,0.00,,,0.00,fowsr,2013-04-29 08:30:00,
2013-04-29 04:35:00,69.4,65.5,29.67,SW,225,0.0,0.0,84,0.00,,,0.00,fowsr,2013-04-29 08:35:00,
2013-04-29 04:40:00,69.3,65.3,29.68,SW,225,0.0,0.0,84,0.00,,,0.00,fowsr,2013-04-29 08:40:00,
2013-04-29 04:45:00,69.3,65.3,29.68,SW,225,0.0,0.0,84,0.00,,,0.00,fowsr,2013-04-29 08:45:00,
2013-04-29 04:50:00,69.3,65.3,29.68,SW,225,0.0,0.0,84,0.00,,,0.00,fowsr,2013-04-29 08:50:00,
2013-04-29 04:55:00,69.1,65.1,29.68,SW,225,0.0,0.0,84,0.00,,,0.00,fowsr,2013-04-29 08:55:00,
2013-04-29 05:05:00,68.9,65.0,29.68,SW,225,0.0,0.0,84,0.00,,,0.00,fowsr,2013-04-29 09:05:00,
2013-04-29 05:10:00,68.7,64.8,29.67,SW,225,0.0,0.0,84,0.00,,,0.00,fowsr,2013-04-29 09:10:00,
2013-04-29 05:15:00,68.7,64.8,29.67,SW,225,0.0,0.0,84,0.00,,,0.00,fowsr,2013-04-29 09:15:00,
2013-04-29 05:20:00,68.7,64.8,29.67,SW,225,0.0,0.0,84,0.00,,,0.00,fowsr,2013-04-29 09:20:00,
2013-04-29 05:25:00,68.5,64.6,29.68,SW,225,0.0,0.0,84,0.00,,,0.00,fowsr,2013-04-29 09:25:00,
2013-04-29 05:30:00,68.5,64.6,29.69,SW,225,0.0,0.0,84,0.00,,,0.00,fowsr,2013-04-29 09:30:00,
2013-04-29 05:35:00,68.5,64.6,29.69,SW,225,0.0,0.0,84,0.00,,,0.00,fowsr,2013-04-29 09:35:00,
2013-04-29 05:40:00,68.4,64.4,29.69,SW,225,0.0,0.0,84,0.00,,,0.00,fowsr,2013-04-29 09:40:00,
2013-04-29 05:45:00,68.4,64.4,29.69,SW,225,0.0,0.0,84,0.00,,,0.00,fowsr,2013-04-29 09:45:00,
2013-04-29 05:50:00,68.4,64.7,29.69,SW,225,0.0,0.0,85,0.00,,,0.00,fowsr,2013-04-29 09:50:00,
2013-04-29 05:55:00,68.2,64.5,29.69,SW,225,0.0,0.0,85,0.00,,,0.00,fowsr,2013-04-29 09:55:00,
2013-04-29 06:00:00,68.2,64.5,29.69,SW,225,0.0,0.0,85,0.00,,,0.00,fowsr,2013-04-29 10:00:00,
2013-04-29 06:05:00,68.2,64.5,29.69,SW,225,0.0,0.0,85,0.00,,,0.00,fowsr,2013-04-29 10:05:00,
2013-04-29 06:10:00,68.0,64.3,29.69,SW,225,0.0,0.0,85,0.00,,,0.00,fowsr,2013-04-29 10:10:00,
2013-04-29 06:15:00,67.8,64.4,29.69,SW,225,0.0,0.0,86,0.00,,,0.00,fowsr,2013-04-29 10:15:00,
2013-04-29 06:20:00,67.8,64.4,29.70,SW,225,0.0,0.0,86,0.00,,,0.00,fowsr,2013-04-29 10:20:00,
2013-04-29 06:25:00,67.8,64.4,29.70,SW,225,0.0,0.0,86,0.00,,,0.00,fowsr,2013-04-29 10:25:00,
2013-04-29 06:30:00,67.6,64.3,29.69,SW,225,0.0,0.0,86,0.00,,,0.00,fowsr,2013-04-29 10:30:00,
2013-04-29 06:35:00,67.6,64.3,29.70,SW,225,0.0,0.0,86,0.00,,,0.00,fowsr,2013-04-29 10:35:00,
2013-04-29 06:40:00,67.6,64.3,29.70,SW,225,0.0,0.0,86,0.00,,,0.00,fowsr,2013-04-29 10:40:00,
2013-04-29 06:45:00,67.6,64.3,29.70,SW,225,0.0,0.0,86,0.00,,,0.00,fowsr,2013-04-29 10:45:00,
2013-04-29 06:50:00,67.6,64.3,29.70,SW,225,0.0,0.0,86,0.00,,,0.00,fowsr,2013-04-29 10:50:00,
2013-04-29 06:55:00,67.6,64.5,29.70,SW,225,0.0,0.0,87,0.00,,,0.00,fowsr,2013-04-29 10:55:00,
2013-04-29 07:00:00,67.6,64.5,29.70,SW,225,0.0,0.0,87,0.00,,,0.00,fowsr,2013-04-29 11:00:00,
2013-04-29 07:05:00,67.6,64.5,29.71,SW,225,0.0,0.0,87,0.00,,,0.00,fowsr,2013-04-29 11:05:00,
2013-04-29 07:10:00,67.6,64.5,29.70,SW,225,0.0,0.0,87,0.00,,,0.00,fowsr,2013-04-29 11:10:00,
2013-04-29 07:15:00,67.8,64.7,29.70,SW,225,0.0,0.0,87,0.00,,,0.00,fowsr,2013-04-29 11:15:00,
2013-04-29 07:20:00,68.0,64.9,29.71,SW,225,0.0,0.0,87,0.00,,,0.00,fowsr,2013-04-29 11:20:00,
2013-04-29 07:25:00,68.2,65.0,29.71,SW,225,0.0,0.0,87,0.00,,,0.00,fowsr,2013-04-29 11:25:00,
2013-04-29 07:30:00,68.7,65.6,29.71,SW,225,0.0,0.0,87,0.00,,,0.00,fowsr,2013-04-29 11:30:00,
2013-04-29 07:40:00,70.0,66.5,29.72,SW,225,0.0,0.0,86,0.00,,,0.00,fowsr,2013-04-29 11:40:00,
2013-04-29 07:45:00,70.3,66.9,29.72,SW,225,0.0,0.0,86,0.00,,,0.00,fowsr,2013-04-29 11:45:00,
2013-04-29 07:50:00,71.1,67.6,29.72,SW,225,0.0,0.0,86,0.00,,,0.00,fowsr,2013-04-29 11:50:00,
2013-04-29 07:55:00,71.6,67.6,29.72,SW,225,0.0,0.0,84,0.00,,,0.00,fowsr,2013-04-29 11:55:00,
2013-04-29 08:00:00,71.8,67.5,29.71,SW,225,0.0,0.0,83,0.00,,,0.00,fowsr,2013-04-29 12:00:00,
2013-04-29 08:05:00,72.1,67.8,29.72,SW,225,0.0,0.0,83,0.00,,,0.00,fowsr,2013-04-29 12:05:00,
2013-04-29 08:10:00,72.7,68.4,29.72,SW,225,0.0,0.0,83,0.00,,,0.00,fowsr,2013-04-29 12:10:00,
2013-04-29 08:20:00,73.8,69.1,29.72,SW,225,0.0,0.0,82,0.00,,,0.00,fowsr,2013-04-29 12:20:00,
2013-04-29 08:25:00,74.8,70.2,29.72,SW,225,0.0,0.0,82,0.00,,,0.00,fowsr,2013-04-29 12:25:00,
2013-04-29 08:30:00,75.6,70.0,29.72,SW,225,0.0,0.0,79,0.00,,,0.00,fowsr,2013-04-29 12:30:00,
2013-04-29 08:35:00,76.1,70.3,29.71,SW,225,0.0,0.0,78,0.00,,,0.00,fowsr,2013-04-29 12:35:00,
2013-04-29 08:40:00,77.0,70.5,29.72,SW,225,0.0,0.0,76,0.00,,,0.00,fowsr,2013-04-29 12:40:00,
2013-04-29 08:45:00,78.1,71.2,29.72,SW,225,0.0,0.0,75,0.00,,,0.00,fowsr,2013-04-29 12:45:00,
2013-04-29 08:50:00,78.8,71.0,29.72,SW,225,0.0,0.0,72,0.00,,,0.00,fowsr,2013-04-29 12:50:00,
2013-04-29 08:55:00,79.7,71.5,29.72,SW,225,0.0,0.0,71,0.00,,,0.00,fowsr,2013-04-29 12:55:00,
2013-04-29 09:00:00,80.6,71.7,29.71,SW,225,0.0,0.0,69,0.00,,,0.00,fowsr,2013-04-29 13:00:00,
2013-04-29 09:05:00,81.3,72.0,29.72,SW,225,0.0,0.7,68,0.00,,,0.00,fowsr,2013-04-29 13:05:00,
2013-04-29 09:10:00,82.0,72.0,29.71,SW,225,0.0,0.0,66,0.00,,,0.00,fowsr,2013-04-29 13:10:00,
2013-04-29 09:15:00,82.9,72.5,29.72,SW,225,0.0,0.0,65,0.00,,,0.00,fowsr,2013-04-29 13:15:00,
2013-04-29 09:20:00,83.8,72.6,29.72,SW,225,0.0,0.0,63,0.00,,,0.00,fowsr,2013-04-29 13:20:00,
2013-04-29 09:25:00,84.0,72.0,29.72,SW,225,0.0,0.0,61,0.00,,,0.00,fowsr,2013-04-29 13:25:00,
2013-04-29 09:30:00,84.0,71.6,29.72,SW,225,0.0,0.0,60,0.00,,,0.00,fowsr,2013-04-29 13:30:00,
2013-04-29 09:35:00,84.0,71.2,29.72,SW,225,0.0,0.0,59,0.00,,,0.00,fowsr,2013-04-29 13:35:00,
2013-04-29 09:40:00,83.8,71.1,29.72,SW,225,0.0,0.0,59,0.00,,,0.00,fowsr,2013-04-29 13:40:00,
2013-04-29 09:45:00,83.5,70.4,29.72,SW,225,0.0,0.0,58,0.00,,,0.00,fowsr,2013-04-29 13:45:00,
2013-04-29 09:50:00,83.3,70.6,29.72,SW,225,0.0,0.0,59,0.00,,,0.00,fowsr,2013-04-29 13:50:00,
2013-04-29 09:55:00,83.3,70.6,29.72,SW,225,0.0,0.0,59,0.00,,,0.00,fowsr,2013-04-29 13:55:00,
2013-04-29 10:00:00,82.9,70.2,29.72,SW,225,0.0,0.0,59,0.00,,,0.00,fowsr,2013-04-29 14:00:00,
2013-04-29 10:05:00,82.6,69.9,29.72,SW,225,0.0,0.0,59,0.00,,,0.00,fowsr,2013-04-29 14:05:00,
2013-04-29 10:10:00,82.4,69.8,29.72,SW,225,0.0,0.0,59,0.00,,,0.00,fowsr,2013-04-29 14:10:00,
2013-04-29 10:15:00,82.6,69.9,29.73,West,270,0.0,0.0,59,0.00,,,0.00,fowsr,2013-04-29 14:15:00,
2013-04-29 10:20:00,82.8,69.7,29.72,West,270,0.0,0.0,58,0.00,,,0.00,fowsr,2013-04-29 14:20:00,
2013-04-29 10:25:00,83.1,70.0,29.72,West,270,0.0,0.0,58,0.00,,,0.00,fowsr,2013-04-29 14:25:00,
2013-04-29 10:30:00,84.0,70.8,29.72,SW,225,0.0,0.7,58,0.00,,,0.00,fowsr,2013-04-29 14:30:00,
2013-04-29 10:35:00,85.1,70.2,29.72,SW,225,0.0,0.0,54,0.00,,,0.00,fowsr,2013-04-29 14:35:00,
2013-04-29 10:40:00,86.0,69.7,29.72,SW,225,0.0,0.0,51,0.00,,,0.00,fowsr,2013-04-29 14:40:00,
2013-04-29 10:45:00,86.7,70.3,29.72,South,180,0.0,0.0,51,0.00,,,0.00,fowsr,2013-04-29 14:45:00,
2013-04-29 10:50:00,87.4,70.1,29.72,SW,225,0.0,0.0,49,0.00,,,0.00,fowsr,2013-04-29 14:50:00,
2013-04-29 10:55:00,87.6,70.2,29.72,South,180,0.0,0.0,49,0.00,,,0.00,fowsr,2013-04-29 14:55:00,
2013-04-29 11:00:00,87.6,70.2,29.72,South,180,0.0,0.0,49,0.00,,,0.00,fowsr,2013-04-29 15:00:00,
2013-04-29 11:05:00,88.0,70.5,29.72,West,270,0.0,0.7,49,0.00,,,0.00,fowsr,2013-04-29 15:05:00,
2013-04-29 11:10:00,88.5,70.5,29.72,West,270,0.0,0.0,48,0.00,,,0.00,fowsr,2013-04-29 15:10:00,
2013-04-29 11:15:00,89.2,70.7,29.72,West,270,0.0,0.0,47,0.00,,,0.00,fowsr,2013-04-29 15:15:00,
2013-04-29 11:20:00,89.4,70.4,29.72,South,180,0.0,0.0,46,0.00,,,0.00,fowsr,2013-04-29 15:20:00,
2013-04-29 11:25:00,89.8,70.7,29.72,SW,225,0.0,0.0,46,0.00,,,0.00,fowsr,2013-04-29 15:25:00,
2013-04-29 11:30:00,89.8,69.7,29.71,SW,225,0.0,0.0,44,0.00,,,0.00,fowsr,2013-04-29 15:30:00,
2013-04-29 11:35:00,90.1,70.5,29.72,SW,225,0.0,0.0,45,0.00,,,0.00,fowsr,2013-04-29 15:35:00,
2013-04-29 11:40:00,89.8,69.7,29.71,SW,225,0.0,0.0,44,0.00,,,0.00,fowsr,2013-04-29 15:40:00,
2013-04-29 11:45:00,89.8,70.2,29.71,SW,225,0.0,0.0,45,0.00,,,0.00,fowsr,2013-04-29 15:45:00,
2013-04-29 11:50:00,90.3,70.6,29.71,SW,225,0.0,0.0,45,0.00,,,0.00,fowsr,2013-04-29 15:50:00,
2013-04-29 11:55:00,91.0,71.8,29.71,SW,225,0.0,0.0,46,0.00,,,0.00,fowsr,2013-04-29 15:55:00,
2013-04-29 12:00:00,91.4,72.1,29.71,SW,225,0.0,0.0,46,0.00,,,0.00,fowsr,2013-04-29 16:00:00,
2013-04-29 12:05:00,91.8,72.4,29.71,SW,225,0.0,0.0,46,0.00,,,0.00,fowsr,2013-04-29 16:05:00,
2013-04-29 12:10:00,92.1,72.8,29.71,SW,225,0.0,0.0,46,0.00,,,0.00,fowsr,2013-04-29 16:10:00,
2013-04-29 12:15:00,91.6,71.8,29.71,West,270,0.0,0.0,45,0.00,,,0.00,fowsr,2013-04-29 16:15:00,
2013-04-29 12:20:00,90.9,70.6,29.71,West,270,0.0,0.7,44,0.00,,,0.00,fowsr,2013-04-29 16:20:00,
2013-04-29 12:25:00,90.1,70.0,29.71,West,270,0.0,0.0,44,0.00,,,0.00,fowsr,2013-04-29 16:25:00,
2013-04-29 12:30:00,89.8,70.2,29.71,West,270,0.0,0.0,45,0.00,,,0.00,fowsr,2013-04-29 16:30:00,
2013-04-29 12:35:00,90.3,70.6,29.70,West,270,0.0,0.0,45,0.00,,,0.00,fowsr,2013-04-29 16:35:00,
2013-04-29 12:40:00,90.7,71.0,29.70,West,270,0.0,0.0,45,0.00,,,0.00,fowsr,2013-04-29 16:40:00,
2013-04-29 12:45:00,90.7,70.4,29.70,SW,225,0.0,0.0,44,0.00,,,0.00,fowsr,2013-04-29 16:45:00,
2013-04-29 12:50:00,90.3,70.1,29.70,SW,225,0.0,0.0,44,0.00,,,0.00,fowsr,2013-04-29 16:50:00,
2013-04-29 12:55:00,90.5,70.3,29.70,SW,225,0.0,0.0,44,0.00,,,0.00,fowsr,2013-04-29 16:55:00,
2013-04-29 13:00:00,90.3,70.1,29.70,SW,225,0.0,0.0,44,0.00,,,0.00,fowsr,2013-04-29 17:00:00,
2013-04-29 13:05:00,90.7,70.4,29.70,SW,225,0.0,0.0,44,0.00,,,0.00,fowsr,2013-04-29 17:05:00,
2013-04-29 13:10:00,90.9,70.6,29.70,SW,225,0.0,0.0,44,0.00,,,0.00,fowsr,2013-04-29 17:10:00,
2013-04-29 13:15:00,90.7,69.9,29.69,SW,225,0.0,0.0,43,0.00,,,0.00,fowsr,2013-04-29 17:15:00,
2013-04-29 13:20:00,90.3,70.1,29.69,SW,225,0.0,0.0,44,0.00,,,0.00,fowsr,2013-04-29 17:20:00,
2013-04-29 13:25:00,90.3,69.6,29.69,SW,225,0.0,0.0,43,0.00,,,0.00,fowsr,2013-04-29 17:25:00,
2013-04-29 13:30:00,90.1,69.4,29.69,SW,225,0.0,0.0,43,0.00,,,0.00,fowsr,2013-04-29 17:30:00,
2013-04-29 13:35:00,89.8,69.1,29.69,SW,225,0.0,0.0,43,0.00,,,0.00,fowsr,2013-04-29 17:35:00,
2013-04-29 13:40:00,89.8,69.7,29.69,SW,225,0.0,0.0,44,0.00,,,0.00,fowsr,2013-04-29 17:40:00,
2013-04-29 13:45:00,89.6,69.5,29.69,SW,225,0.0,0.0,44,0.00,,,0.00,fowsr,2013-04-29 17:45:00,
2013-04-29 13:50:00,89.6,69.5,29.68,SW,225,0.0,0.0,44,0.00,,,0.00,fowsr,2013-04-29 17:50:00,
2013-04-29 13:55:00,89.8,69.7,29.68,SW,225,0.0,0.0,44,0.00,,,0.00,fowsr,2013-04-29 17:55:00,
2013-04-29 14:00:00,89.8,69.7,29.68,SW,225,0.0,0.0,44,0.00,,,0.00,fowsr,2013-04-29 18:00:00,
2013-04-29 14:05:00,89.8,69.1,29.68,SW,225,0.0,0.0,43,0.00,,,0.00,fowsr,2013-04-29 18:05:00,
2013-04-29 14:10:00,89.8,69.7,29.68,SW,225,0.0,0.0,44,0.00,,,0.00,fowsr,2013-04-29 18:10:00,
2013-04-29 14:15:00,89.8,69.7,29.68,SW,225,0.0,0.0,44,0.00,,,0.00,fowsr,2013-04-29 18:15:00,
2013-04-29 14:20:00,89.8,69.1,29.67,SW,225,0.0,0.0,43,0.00,,,0.00,fowsr,2013-04-29 18:20:00,
2013-04-29 14:25:00,89.8,69.1,29.67,SW,225,0.0,0.0,43,0.00,,,0.00,fowsr,2013-04-29 18:25:00,
2013-04-29 14:30:00,89.6,69.5,29.66,SW,225,0.0,0.0,44,0.00,,,0.00,fowsr,2013-04-29 18:30:00,
2013-04-29 14:35:00,89.6,70.5,29.66,SW,225,0.0,0.0,46,0.00,,,0.00,fowsr,2013-04-29 18:35:00,
2013-04-29 14:40:00,89.4,70.4,29.66,SW,225,0.0,0.0,46,0.00,,,0.00,fowsr,2013-04-29 18:40:00,
2013-04-29 14:45:00,89.2,70.2,29.66,SW,225,0.0,0.0,46,0.00,,,0.00,fowsr,2013-04-29 18:45:00,
2013-04-29 14:50:00,88.5,70.1,29.66,SW,225,0.0,0.0,47,0.00,,,0.00,fowsr,2013-04-29 18:50:00,
2013-04-29 14:55:00,87.3,71.3,29.66,SW,225,0.0,0.0,52,0.00,,,0.00,fowsr,2013-04-29 18:55:00,
2013-04-29 15:00:00,86.7,71.2,29.65,SW,225,0.0,0.0,53,0.00,,,0.00,fowsr,2013-04-29 19:00:00,
2013-04-29 15:05:00,86.7,71.2,29.65,SW,225,0.0,0.0,53,0.00,,,0.00,fowsr,2013-04-29 19:05:00,
2013-04-29 15:10:00,87.1,71.1,29.65,SW,225,0.0,0.0,52,0.00,,,0.00,fowsr,2013-04-29 19:10:00,
2013-04-29 15:15:00,87.6,71.1,29.64,SW,225,0.0,0.0,51,0.00,,,0.00,fowsr,2013-04-29 19:15:00,
2013-04-29 15:20:00,87.8,69.9,29.64,SW,225,0.0,0.0,48,0.00,,,0.00,fowsr,2013-04-29 19:20:00,
2013-04-29 15:25:00,88.0,70.5,29.63,SW,225,0.0,0.0,49,0.00,,,0.00,fowsr,2013-04-29 19:25:00,
2013-04-29 15:30:00,88.3,69.9,29.63,SW,225,0.0,0.0,47,0.00,,,0.00,fowsr,2013-04-29 19:30:00,
2013-04-29 15:35:00,88.5,70.1,29.63,SW,225,0.0,0.0,47,0.00,,,0.00,fowsr,2013-04-29 19:35:00,
2013-04-29 15:40:00,88.7,70.2,29.63,SW,225,0.0,0.0,47,0.00,,,0.00,fowsr,2013-04-29 19:40:00,
2013-04-29 15:45:00,88.7,70.2,29.63,SW,225,0.0,0.0,47,0.00,,,0.00,fowsr,2013-04-29 19:45:00,
2013-04-29 15:50:00,88.7,69.7,29.62,SW,225,0.0,0.0,46,0.00,,,0.00,fowsr,2013-04-29 19:50:00,
2013-04-29 15:55:00,88.7,70.2,29.62,SW,225,0.0,0.0,47,0.00,,,0.00,fowsr,2013-04-29 19:55:00,
2013-04-29 16:00:00,88.9,69.9,29.62,SW,225,0.0,0.0,46,0.00,,,0.00,fowsr,2013-04-29 20:00:00,
2013-04-29 16:05:00,88.9,69.9,29.61,SW,225,0.0,0.0,46,0.00,,,0.00,fowsr,2013-04-29 20:05:00,
2013-04-29 16:10:00,89.1,70.0,29.61,SW,225,0.0,0.0,46,0.00,,,0.00,fowsr,2013-04-29 20:10:00,
2013-04-29 16:15:00,89.2,70.2,29.60,SW,225,0.0,0.0,46,0.00,,,0.00,fowsr,2013-04-29 20:15:00,
2013-04-29 16:20:00,89.2,70.2,29.60,SW,225,0.0,0.0,46,0.00,,,0.00,fowsr,2013-04-29 20:20:00,
2013-04-29 16:25:00,89.4,69.9,29.60,SW,225,0.0,0.0,45,0.00,,,0.00,fowsr,2013-04-29 20:25:00,
2013-04-29 16:30:00,89.1,69.5,29.60,SW,225,0.0,0.0,45,0.00,,,0.00,fowsr,2013-04-29 20:30:00,
2013-04-29 16:35:00,88.9,69.9,29.60,SW,225,0.0,0.0,46,0.00,,,0.00,fowsr,2013-04-29 20:35:00,
2013-04-29 16:40:00,88.9,69.9,29.60,SW,225,0.0,0.0,46,0.00,,,0.00,fowsr,2013-04-29 20:40:00,
2013-04-29 16:45:00,88.9,69.4,29.60,SW,225,0.0,0.0,45,0.00,,,0.00,fowsr,2013-04-29 20:45:00,
2013-04-29 16:50:00,88.9,69.4,29.60,SW,225,0.0,0.0,45,0.00,,,0.00,fowsr,2013-04-29 20:50:00,
2013-04-29 16:55:00,89.1,70.0,29.60,SW,225,0.0,0.0,46,0.00,,,0.00,fowsr,2013-04-29 20:55:00,
2013-04-29 17:00:00,89.4,69.9,29.60,SW,225,0.0,0.0,45,0.00,,,0.00,fowsr,2013-04-29 21:00:00,
2013-04-29 17:05:00,89.4,69.9,29.60,SW,225,0.0,0.0,45,0.00,,,0.00,fowsr,2013-04-29 21:05:00,
2013-04-29 17:10:00,89.1,69.5,29.60,SW,225,0.0,0.0,45,0.00,,,0.00,fowsr,2013-04-29 21:10:00,
2013-04-29 17:15:00,88.7,69.2,29.60,SW,225,0.0,0.0,45,0.00,,,0.00,fowsr,2013-04-29 21:15:00,
2013-04-29 17:20:00,88.3,68.9,29.60,SW,225,0.0,0.0,45,0.00,,,0.00,fowsr,2013-04-29 21:20:00,
2013-04-29 17:25:00,88.2,68.7,29.60,SW,225,0.0,0.0,45,0.00,,,0.00,fowsr,2013-04-29 21:25:00,
2013-04-29 17:30:00,88.0,68.6,29.59,SW,225,0.0,0.0,45,0.00,,,0.00,fowsr,2013-04-29 21:30:00,
2013-04-29 17:35:00,87.4,68.6,29.60,SW,225,0.0,0.0,46,0.00,,,0.00,fowsr,2013-04-29 21:35:00,
2013-04-29 17:40:00,87.3,68.4,29.60,SW,225,0.0,0.0,46,0.00,,,0.00,fowsr,2013-04-29 21:40:00,
2013-04-29 17:45:00,87.1,68.8,29.59,SW,225,0.0,0.0,47,0.00,,,0.00,fowsr,2013-04-29 21:45:00,
2013-04-29 17:50:00,86.9,68.6,29.60,SW,225,0.0,0.0,47,0.00,,,0.00,fowsr,2013-04-29 21:50:00,
2013-04-29 17:55:00,86.7,68.5,29.59,SW,225,0.0,0.0,47,0.00,,,0.00,fowsr,2013-04-29 21:55:00,
2013-04-29 18:00:00,86.5,68.3,29.59,SW,225,0.0,0.0,47,0.00,,,0.00,fowsr,2013-04-29 22:00:00,
2013-04-29 18:05:00,86.5,68.3,29.59,SW,225,0.0,0.0,47,0.00,,,0.00,fowsr,2013-04-29 22:05:00,
2013-04-29 18:10:00,86.5,68.8,29.59,SW,225,0.0,0.0,48,0.00,,,0.00,fowsr,2013-04-29 22:10:00,
2013-04-29 18:15:00,86.4,68.6,29.59,SW,225,0.0,0.0,48,0.00,,,0.00,fowsr,2013-04-29 22:15:00,
2013-04-29 18:20:00,86.4,68.6,29.59,SW,225,0.0,0.0,48,0.00,,,0.00,fowsr,2013-04-29 22:20:00,
2013-04-29 18:25:00,86.4,68.6,29.59,SW,225,0.0,0.0,48,0.00,,,0.00,fowsr,2013-04-29 22:25:00,
2013-04-29 18:30:00,86.2,68.9,29.59,SW,225,0.0,0.0,49,0.00,,,0.00,fowsr,2013-04-29 22:30:00,
2013-04-29 18:35:00,86.0,68.8,29.59,SW,225,0.0,0.0,49,0.00,,,0.00,fowsr,2013-04-29 22:35:00,
2013-04-29 18:40:00,85.8,68.6,29.59,SW,225,0.0,0.0,49,0.00,,,0.00,fowsr,2013-04-29 22:40:00,
2013-04-29 18:45:00,85.6,68.4,29.59,SW,225,0.0,0.0,49,0.00,,,0.00,fowsr,2013-04-29 22:45:00,
2013-04-29 18:50:00,85.5,68.7,29.59,SW,225,0.0,0.0,50,0.00,,,0.00,fowsr,2013-04-29 22:50:00,
2013-04-29 18:55:00,85.1,68.4,29.59,SW,225,0.0,0.0,50,0.00,,,0.00,fowsr,2013-04-29 22:55:00,
2013-04-29 19:00:00,84.7,68.5,29.59,SW,225,0.0,0.0,51,0.00,,,0.00,fowsr,2013-04-29 23:00:00,
2013-04-29 19:05:00,84.7,68.5,29.59,SW,225,0.0,0.0,51,0.00,,,0.00,fowsr,2013-04-29 23:05:00,
2013-04-29 19:10:00,84.7,68.5,29.59,SW,225,0.0,0.0,51,0.00,,,0.00,fowsr,2013-04-29 23:10:00,
2013-04-29 19:15:00,84.6,68.4,29.59,SW,225,0.0,0.0,51,0.00,,,0.00,fowsr,2013-04-29 23:15:00,
2013-04-29 19:20:00,84.2,70.2,29.60,SW,225,0.0,0.0,56,0.00,,,0.00,fowsr,2013-04-29 23:20:00,
2013-04-29 19:25:00,83.7,71.7,29.59,SW,225,0.0,0.0,61,0.00,,,0.00,fowsr,2013-04-29 23:25:00,
2013-04-29 19:30:00,82.8,71.6,29.59,SW,225,0.0,0.0,63,0.00,,,0.00,fowsr,2013-04-29 23:30:00,
2013-04-29 19:35:00,81.5,71.2,29.59,SW,225,0.0,0.0,65,0.00,,,0.00,fowsr,2013-04-29 23:35:00,
2013-04-29 19:40:00,80.8,70.8,29.59,SW,225,0.0,0.0,66,0.00,,,0.00,fowsr,2013-04-29 23:40:00,
2013-04-29 19:45:00,80.1,71.2,29.59,SW,225,0.0,0.0,69,0.00,,,0.00,fowsr,2013-04-29 23:45:00,
2013-04-29 19:50:00,79.7,70.8,29.60,SW,225,0.0,0.0,69,0.00,,,0.00,fowsr,2013-04-29 23:50:00,
2013-04-29 19:55:00,79.3,71.2,29.61,SW,225,0.0,0.0,71,0.00,,,0.00,fowsr,2013-04-29 23:55:00,
2013-04-29 20:00:00,78.8,70.7,29.62,SW,225,0.0,0.0,71,0.00,,,0.00,fowsr,2013-04-30 00:00:00,
2013-04-29 20:05:00,78.3,70.5,29.62,SW,225,0.0,0.0,72,0.00,,,0.00,fowsr,2013-04-30 00:05:00,
2013-04-29 20:10:00,77.7,70.0,29.62,SW,225,0.0,0.0,72,0.00,,,0.00,fowsr,2013-04-30 00:10:00,
2013-04-29 20:15:00,77.2,69.4,29.62,SW,225,0.0,0.0,72,0.00,,,0.00,fowsr,2013-04-30 00:15:00,
2013-04-29 20:20:00,77.0,69.6,29.62,SW,225,0.0,0.0,73,0.00,,,0.00,fowsr,2013-04-30 00:20:00,
2013-04-29 20:25:00,76.6,69.9,29.62,SW,225,0.0,0.0,75,0.00,,,0.00,fowsr,2013-04-30 00:25:00,
2013-04-29 20:30:00,76.1,69.3,29.62,SW,225,0.0,0.0,75,0.00,,,0.00,fowsr,2013-04-30 00:30:00,
2013-04-29 20:35:00,75.7,69.3,29.61,SW,225,0.0,0.0,76,0.00,,,0.00,fowsr,2013-04-30 00:35:00,
2013-04-29 20:40:00,75.4,69.0,29.62,SW,225,0.0,0.0,76,0.00,,,0.00,fowsr,2013-04-30 00:40:00,
2013-04-29 20:45:00,75.2,69.1,29.62,SW,225,0.0,0.0,77,0.00,,,0.00,fowsr,2013-04-30 00:45:00,
2013-04-29 20:50:00,74.8,69.0,29.62,SW,225,0.0,0.0,78,0.00,,,0.00,fowsr,2013-04-30 00:50:00,
2013-04-29 20:55:00,74.7,69.2,29.63,SW,225,0.0,0.0,79,0.00,,,0.00,fowsr,2013-04-30 00:55:00,
2013-04-29 21:00:00,74.5,69.0,29.63,SW,225,0.0,0.0,79,0.00,,,0.00,fowsr,2013-04-30 01:00:00,
2013-04-29 21:05:00,74.3,68.8,29.64,SW,225,0.0,0.0,79,0.00,,,0.00,fowsr,2013-04-30 01:05:00,
2013-04-29 21:15:00,73.9,68.7,29.64,SW,225,0.0,0.0,80,0.00,,,0.00,fowsr,2013-04-30 01:15:00,
2013-04-29 21:20:00,73.9,68.7,29.64,SW,225,0.0,0.0,80,0.00,,,0.00,fowsr,2013-04-30 01:20:00,
2013-04-29 21:25:00,73.8,68.9,29.64,SW,225,0.0,0.0,81,0.00,,,0.00,fowsr,2013-04-30 01:25:00,
2013-04-29 21:30:00,73.8,68.9,29.64,SW,225,0.0,0.0,81,0.00,,,0.00,fowsr,2013-04-30 01:30:00,
2013-04-29 21:35:00,73.6,69.0,29.64,SW,225,0.0,0.0,82,0.00,,,0.00,fowsr,2013-04-30 01:35:00,
2013-04-29 21:40:00,73.4,69.1,29.64,SW,225,0.0,0.0,83,0.00,,,0.00,fowsr,2013-04-30 01:40:00,
2013-04-29 21:45:00,73.0,68.4,29.64,SW,225,0.0,0.0,82,0.00,,,0.00,fowsr,2013-04-30 01:45:00,
2013-04-29 21:50:00,72.9,68.5,29.64,SW,225,0.0,0.0,83,0.00,,,0.00,fowsr,2013-04-30 01:50:00,
2013-04-29 21:55:00,72.7,68.4,29.65,SW,225,0.0,0.0,83,0.00,,,0.00,fowsr,2013-04-30 01:55:00,
2013-04-29 22:00:00,72.7,68.4,29.66,SW,225,0.0,0.0,83,0.00,,,0.00,fowsr,2013-04-30 02:00:00,
2013-04-29 22:05:00,72.7,68.6,29.66,SW,225,0.0,0.0,84,0.00,,,0.00,fowsr,2013-04-30 02:05:00,
2013-04-29 22:10:00,72.3,68.0,29.67,SW,225,0.0,0.0,83,0.00,,,0.00,fowsr,2013-04-30 02:10:00,
2013-04-29 22:15:00,71.6,66.8,29.67,SW,225,0.0,0.0,81,0.00,,,0.00,fowsr,2013-04-30 02:15:00,
2013-04-29 22:20:00,71.1,66.5,29.67,SW,225,0.0,0.0,82,0.00,,,0.00,fowsr,2013-04-30 02:20:00,
2013-04-29 22:25:00,70.7,66.4,29.66,SW,225,0.0,0.0,83,0.00,,,0.00,fowsr,2013-04-30 02:25:00,
2013-04-29 22:30:00,70.3,66.1,29.66,SW,225,0.0,0.0,83,0.00,,,0.00,fowsr,2013-04-30 02:30:00,
2013-04-29 22:35:00,70.3,66.6,29.66,SW,225,0.0,0.0,85,0.00,,,0.00,fowsr,2013-04-30 02:35:00,
2013-04-29 22:40:00,70.5,66.8,29.65,SW,225,0.0,0.0,85,0.00,,,0.00,fowsr,2013-04-30 02:40:00,
2013-04-29 22:45:00,70.5,67.1,29.65,SW,225,0.0,0.0,86,0.00,,,0.00,fowsr,2013-04-30 02:45:00,
2013-04-29 22:50:00,70.7,67.2,29.65,SW,225,0.0,0.0,86,0.00,,,0.00,fowsr,2013-04-30 02:50:00,
2013-04-29 22:55:00,70.7,67.2,29.65,SW,225,0.0,0.0,86,0.00,,,0.00,fowsr,2013-04-30 02:55:00,
2013-04-29 23:00:00,70.7,67.2,29.65,SW,225,0.0,0.0,86,0.00,,,0.00,fowsr,2013-04-30 03:00:00,
2013-04-29 23:05:00,70.7,67.2,29.66,SW,225,0.0,0.0,86,0.00,,,0.00,fowsr,2013-04-30 03:05:00,
2013-04-29 23:10:00,70.7,67.2,29.66,SW,225,0.0,0.0,86,0.00,,,0.00,fowsr,2013-04-30 03:10:00,
2013-04-29 23:15:00,70.5,67.1,29.67,SW,225,0.0,0.0,86,0.00,,,0.00,fowsr,2013-04-30 03:15:00,
2013-04-29 23:20:00,70.5,67.1,29.67,SW,225,0.0,0.0,86,0.00,,,0.00,fowsr,2013-04-30 03:20:00,
2013-04-29 23:25:00,70.5,67.3,29.67,SW,225,0.0,0.0,87,0.00,,,0.00,fowsr,2013-04-30 03:25:00,
2013-04-29 23:30:00,70.5,67.3,29.66,SW,225,0.0,0.0,87,0.00,,,0.00,fowsr,2013-04-30 03:30:00,
2013-04-29 23:35:00,70.5,67.6,29.66,SW,225,0.0,0.0,88,0.00,,,0.00,fowsr,2013-04-30 03:35:00,
2013-04-29 23:40:00,70.5,67.6,29.67,SW,225,0.0,0.0,88,0.00,,,0.00,fowsr,2013-04-30 03:40:00,
2013-04-29 23:45:00,70.5,67.6,29.66,SW,225,0.0,0.0,88,0.00,,,0.00,fowsr,2013-04-30 03:45:00,
2013-04-29 23:50:00,70.5,67.6,29.66,SW,225,0.0,0.0,88,0.00,,,0.00,fowsr,2013-04-30 03:50:00,
2013-04-29 23:55:00,70.5,67.3,29.66,SW,225,0.0,0.0,87,0.00,,,0.00,fowsr,2013-04-30 03:55:00,